C81 weather

Campbell Airport
Grayslake, Illinois, United States

Public forecast

Using degrees Fahrenheit for public forecast. Weather courtesy of forecast.io.

Closest aviation weather report (METAR) to Campbell Airport

Closest report is Waukegan National Airport, 10.9 nm (20.1 km) ENE. Retrieved 2020/08/07 02:55 UTC (60 minutes ago):

KUGN 070255Z AUTO 00000KT 6SM BR CLR 17/15 A3011 RMK AO2 SLP188 T01670150 53003

Closest aviation forecast (TAF) to Campbell Airport

Closest forecast is Kenosha Regional Airport, 17.5 nm (32.4 km) NNE. Retrieved 2020-08-07 00:36 UTC (3 hours ago):

TAF KENW 062333Z 0700/0724 09005KT P6SM SKC FM070300 VRB03KT P6SM SKC FM071600 15008KT P6SM SCT040